createdAt,value
2023-04-22T00:00:45.556Z,83.79
2023-04-22T00:03:12.184Z,84.68
2023-04-22T00:05:38.829Z,85.79
2023-04-22T00:08:05.391Z,86.59
2023-04-22T00:10:31.889Z,86.37
2023-04-22T00:12:58.358Z,87.67
2023-04-22T00:15:25.579Z,86.14
2023-04-22T00:17:52.098Z,84.12
2023-04-22T00:20:21.894Z,83.85
2023-04-22T00:22:48.400Z,83.15
2023-04-22T00:25:15.225Z,83.39
2023-04-22T00:27:41.706Z,83.59
2023-04-22T00:30:08.360Z,84.10
2023-04-22T00:32:35.049Z,84.36
2023-04-22T00:35:01.515Z,86.64
2023-04-22T00:37:28.428Z,90.00
2023-04-22T00:39:54.845Z,90.32
2023-04-22T00:42:21.728Z,89.44
2023-04-22T00:44:48.579Z,89.45
2023-04-22T00:47:15.944Z,89.67
2023-04-22T00:49:42.371Z,90.88
2023-04-22T00:52:08.804Z,89.79
2023-04-22T00:54:36.005Z,87.72
2023-04-22T00:57:03.938Z,88.92
2023-04-22T00:59:30.467Z,89.71
2023-04-22T01:01:56.965Z,92.99
2023-04-22T01:04:23.451Z,93.32
2023-04-22T01:06:51.575Z,92.35
2023-04-22T01:09:19.316Z,90.54
2023-04-22T01:11:46.394Z,88.50
2023-04-22T01:14:12.958Z,87.51
2023-04-22T01:16:41.170Z,87.26
2023-04-22T01:19:08.342Z,87.99
2023-04-22T01:21:35.612Z,88.42
2023-04-22T01:24:02.245Z,88.93
2023-04-22T01:26:29.034Z,89.66
2023-04-22T01:28:55.902Z,92.33
2023-04-22T01:31:22.614Z,91.23
2023-04-22T01:33:49.627Z,90.06
2023-04-22T01:36:16.959Z,90.32
2023-04-22T01:38:43.409Z,93.47
2023-04-22T01:41:10.032Z,93.29
2023-04-22T01:43:36.736Z,94.17
2023-04-22T01:46:04.722Z,94.76
2023-04-22T01:48:31.222Z,95.72
2023-04-22T01:50:57.713Z,94.89
2023-04-22T01:53:24.668Z,93.67
2023-04-22T01:55:51.104Z,93.46
2023-04-22T01:58:17.497Z,93.75
2023-04-22T02:00:44.326Z,93.77
2023-04-22T02:03:11.063Z,93.61
2023-04-22T02:05:38.221Z,94.12
2023-04-22T02:08:04.989Z,95.38
2023-04-22T02:10:31.573Z,95.51
2023-04-22T02:12:58.090Z,94.81
2023-04-22T02:15:24.631Z,96.09
2023-04-22T02:17:51.137Z,96.53
2023-04-22T02:20:17.668Z,95.95
2023-04-22T02:22:44.163Z,97.88
2023-04-22T02:25:14.028Z,98.19
2023-04-22T02:27:40.632Z,96.75
2023-04-22T02:30:07.488Z,96.63
2023-04-22T02:32:35.793Z,96.47
2023-04-22T02:35:03.064Z,97.89
2023-04-22T02:37:29.564Z,98.49
2023-04-22T02:39:55.971Z,98.94
2023-04-22T02:42:22.409Z,98.39
2023-04-22T02:44:48.823Z,97.87
2023-04-22T02:47:15.284Z,98.39
2023-04-22T02:49:41.987Z,99.61
2023-04-22T02:52:08.736Z,99.52
2023-04-22T02:54:35.226Z,98.90
2023-04-22T02:57:01.764Z,98.86
2023-04-22T02:59:28.202Z,97.76
2023-04-22T03:01:54.688Z,98.70
2023-04-22T03:04:22.131Z,99.21
2023-04-22T03:06:49.115Z,98.96
2023-04-22T03:09:15.557Z,98.80
2023-04-22T03:11:41.961Z,100.00
2023-04-22T03:14:08.357Z,100.00
2023-04-22T03:16:34.818Z,99.79
2023-04-22T03:19:01.252Z,98.84
2023-04-22T03:21:28.558Z,97.61
2023-04-22T03:23:55.095Z,97.22
2023-04-22T03:26:21.944Z,97.23
2023-04-22T03:28:48.355Z,97.60
2023-04-22T03:31:14.761Z,98.22
2023-04-22T03:33:41.168Z,98.06
2023-04-22T03:36:08.056Z,98.30
2023-04-22T03:38:34.500Z,98.00
2023-04-22T03:41:00.907Z,98.08
2023-04-22T03:43:27.403Z,98.13
2023-04-22T03:45:53.895Z,98.13
2023-04-22T03:48:20.306Z,97.46
2023-04-22T03:50:46.703Z,97.89
2023-04-22T03:53:13.230Z,97.79
2023-04-22T03:55:39.710Z,99.86
2023-04-22T03:58:06.250Z,98.95
2023-04-22T04:00:32.733Z,98.11
2023-04-22T04:02:59.678Z,99.24
2023-04-22T04:05:26.303Z,99.80
2023-04-22T04:07:52.783Z,99.67
2023-04-22T04:10:19.211Z,100.00
2023-04-22T04:12:45.745Z,100.00
2023-04-22T04:15:12.167Z,100.00
2023-04-22T04:17:38.690Z,100.00
2023-04-22T04:20:05.559Z,100.00
2023-04-22T04:22:31.993Z,100.00
2023-04-22T04:24:58.449Z,100.00
2023-04-22T04:27:24.899Z,100.00
2023-04-22T04:29:52.665Z,100.00
2023-04-22T04:32:19.104Z,99.02
2023-04-22T04:34:45.513Z,97.81
2023-04-22T04:37:12.727Z,100.00
2023-04-22T04:39:39.580Z,100.00
2023-04-22T04:42:06.336Z,100.00
2023-04-22T04:44:33.791Z,100.00
2023-04-22T04:47:00.344Z,99.81
2023-04-22T04:49:26.925Z,98.55
2023-04-22T04:51:53.363Z,98.19
2023-04-22T04:54:19.837Z,97.20
2023-04-22T04:56:46.496Z,96.51
2023-04-22T04:59:12.952Z,95.87
2023-04-22T05:01:39.552Z,97.02
2023-04-22T05:04:06.657Z,97.89
2023-04-22T05:06:33.787Z,96.61
2023-04-22T05:09:00.358Z,96.51
2023-04-22T05:11:26.842Z,96.13
2023-04-22T05:13:53.313Z,95.07
2023-04-22T05:16:19.992Z,94.35
2023-04-22T05:18:46.412Z,94.31
2023-04-22T05:21:12.827Z,94.53
2023-04-22T05:23:39.606Z,94.24
2023-04-22T05:26:06.074Z,93.36
2023-04-22T05:28:32.534Z,94.37
2023-04-22T05:30:58.994Z,95.18
2023-04-22T05:33:25.390Z,94.05
2023-04-22T05:35:52.456Z,92.82
2023-04-22T05:38:18.944Z,92.89
2023-04-22T05:40:45.453Z,90.90
2023-04-22T05:43:11.919Z,90.25
2023-04-22T05:45:38.423Z,88.60
2023-04-22T05:48:04.988Z,87.61
2023-04-22T05:50:31.560Z,88.01
2023-04-22T05:52:57.974Z,85.83
2023-04-22T05:55:24.441Z,82.88
2023-04-22T05:57:51.584Z,83.19
2023-04-22T06:00:18.628Z,79.85
2023-04-22T06:02:45.360Z,78.82
2023-04-22T06:05:12.028Z,77.64
2023-04-22T06:07:38.587Z,76.05
2023-04-22T06:10:05.722Z,76.42
2023-04-22T06:12:33.587Z,75.93
2023-04-22T06:14:59.984Z,75.46
2023-04-22T06:17:26.596Z,74.37
2023-04-22T06:19:53.101Z,74.16
2023-04-22T06:22:21.376Z,72.52
2023-04-22T06:24:48.396Z,68.89
2023-04-22T06:27:14.929Z,66.27
2023-04-22T06:29:41.576Z,62.40
2023-04-22T06:32:08.097Z,60.58
2023-04-22T06:34:34.685Z,60.28
2023-04-22T06:37:01.121Z,59.71
2023-04-22T06:39:27.623Z,60.37
2023-04-22T06:41:54.222Z,59.07
2023-04-22T06:44:20.753Z,58.01
2023-04-22T06:46:47.301Z,57.53
2023-04-22T06:49:13.781Z,56.80
2023-04-22T06:51:40.313Z,60.81
2023-04-22T06:54:06.892Z,59.18
2023-04-22T06:56:33.370Z,57.20
2023-04-22T06:58:59.871Z,56.73
2023-04-22T07:01:26.357Z,55.67
2023-04-22T07:03:52.862Z,57.51
2023-04-22T07:06:19.384Z,57.69
2023-04-22T07:08:45.783Z,57.94
2023-04-22T07:11:14.269Z,54.01
2023-04-22T07:13:41.299Z,55.07
2023-04-22T07:16:07.927Z,54.26
2023-04-22T07:18:36.012Z,52.36
2023-04-22T07:21:02.654Z,53.43
2023-04-22T07:23:29.195Z,52.05
2023-04-22T07:25:55.781Z,52.80
2023-04-22T07:28:22.253Z,52.70
2023-04-22T07:30:48.800Z,53.88
2023-04-22T07:33:15.243Z,52.93
2023-04-22T07:46:41.336Z,50.20
2023-04-22T07:49:08.010Z,49.75
2023-04-22T07:51:34.556Z,49.55
2023-04-22T07:54:01.099Z,51.11
2023-04-22T07:56:27.752Z,50.96
2023-04-22T07:58:54.337Z,50.40
2023-04-22T08:01:20.928Z,53.34
2023-04-22T08:03:47.904Z,51.05
2023-04-22T08:06:14.673Z,51.02
2023-04-22T08:08:41.228Z,49.38
2023-04-22T08:11:08.040Z,46.80
2023-04-22T08:13:34.771Z,45.76
2023-04-22T08:16:04.601Z,46.46
2023-04-22T08:18:31.195Z,45.62
2023-04-22T08:20:57.738Z,45.47
2023-04-22T08:23:25.069Z,46.46
2023-04-22T08:25:52.112Z,44.83
2023-04-22T08:28:18.696Z,45.98
2023-04-22T08:30:45.273Z,45.68
2023-04-22T08:33:12.188Z,42.67
2023-04-22T08:35:38.872Z,44.88
2023-04-22T08:38:05.449Z,42.66
2023-04-22T08:40:32.019Z,45.18
2023-04-22T08:42:58.710Z,42.86
2023-04-22T08:45:25.341Z,40.20
2023-04-22T08:47:53.715Z,40.62
2023-04-22T08:50:22.510Z,44.92
2023-04-22T08:52:49.249Z,43.28
2023-04-22T08:55:15.848Z,44.53
2023-04-22T08:57:43.042Z,45.01
2023-04-22T09:00:10.044Z,44.99
2023-04-22T09:02:37.577Z,44.38
2023-04-22T09:05:06.552Z,45.52
2023-04-22T09:07:33.316Z,43.28
2023-04-22T09:09:59.854Z,41.71
2023-04-22T09:12:26.571Z,42.44
2023-04-22T09:14:54.537Z,41.14
2023-04-22T09:17:35.117Z,43.26
2023-04-22T09:20:04.579Z,48.57
2023-04-22T09:22:45.253Z,43.01
2023-04-22T09:25:21.366Z,41.96
2023-04-22T09:27:52.504Z,42.34
2023-04-22T09:30:33.339Z,38.35
2023-04-22T09:33:04.717Z,44.25
2023-04-22T09:35:36.930Z,37.83
2023-04-22T09:38:10.484Z,40.36
2023-04-22T09:40:38.009Z,39.25
2023-04-22T09:45:37.812Z,38.89
2023-04-22T09:48:11.630Z,37.81
2023-04-22T09:50:40.868Z,41.38
2023-04-22T09:53:09.967Z,39.88
2023-04-22T09:55:48.456Z,40.05
2023-04-22T09:58:20.179Z,38.91
2023-04-22T10:00:52.109Z,40.89
2023-04-22T10:03:19.443Z,38.19
2023-04-22T10:05:46.374Z,39.29
2023-04-22T10:08:15.376Z,39.11
2023-04-22T10:10:42.784Z,35.08
2023-04-22T10:13:09.315Z,33.78
2023-04-22T10:15:42.555Z,34.46
2023-04-22T10:18:12.841Z,33.16
2023-04-22T10:20:42.403Z,32.34
2023-04-22T10:23:18.962Z,36.87
2023-04-22T10:25:51.477Z,38.20
2023-04-22T10:28:20.571Z,32.78
2023-04-22T10:30:47.304Z,39.57
2023-04-22T10:33:29.060Z,36.11
2023-04-22T10:36:15.855Z,33.89
2023-04-22T10:38:54.215Z,33.85
2023-04-22T10:41:35.097Z,37.02
2023-04-22T10:44:07.054Z,36.23
2023-04-22T10:46:40.351Z,36.52
2023-04-22T10:49:07.861Z,37.61
2023-04-22T10:51:41.226Z,38.35
2023-04-22T10:54:31.425Z,34.26
2023-04-22T10:57:03.667Z,34.45
2023-04-22T10:59:31.916Z,35.66
2023-04-22T11:02:02.597Z,33.69
2023-04-22T11:04:29.399Z,38.80
2023-04-22T11:07:16.246Z,34.05
2023-04-22T11:09:46.820Z,38.00
2023-04-22T11:12:35.831Z,36.57
2023-04-22T11:15:23.039Z,37.92
2023-04-22T11:17:54.315Z,35.19
2023-04-22T11:20:21.285Z,32.31
2023-04-22T11:22:50.907Z,36.06
2023-04-22T11:25:17.929Z,34.84
2023-04-22T11:27:44.647Z,36.73
2023-04-22T11:30:21.966Z,36.35
2023-04-22T11:32:53.615Z,36.44
2023-04-22T11:35:29.693Z,37.24
2023-04-22T11:37:58.950Z,38.65
2023-04-22T11:40:38.830Z,38.71
2023-04-22T11:43:08.613Z,38.99
2023-04-22T11:45:37.218Z,39.50
2023-04-22T11:48:07.230Z,40.03
2023-04-22T11:50:55.118Z,40.77
2023-04-22T11:53:24.187Z,42.06
2023-04-22T11:55:52.010Z,42.01
2023-04-22T11:58:28.881Z,42.19
2023-04-22T12:00:57.742Z,42.73
2023-04-22T12:03:31.547Z,42.60
2023-04-22T12:05:59.596Z,42.75
2023-04-22T12:08:49.457Z,42.83
2023-04-22T12:11:16.007Z,41.40
2023-04-22T12:13:45.632Z,41.93
2023-04-22T12:16:14.200Z,42.23
2023-04-22T12:18:52.078Z,41.88
2023-04-22T12:21:24.798Z,42.25
2023-04-22T12:23:59.794Z,42.15
2023-04-22T12:26:27.945Z,41.38
2023-04-22T12:28:56.725Z,39.64
2023-04-22T12:31:23.874Z,40.42
2023-04-22T12:33:50.805Z,42.31
2023-04-22T12:36:20.829Z,42.72
2023-04-22T12:38:47.881Z,41.98
2023-04-22T12:41:15.851Z,42.03
2023-04-22T12:43:42.462Z,42.70
2023-04-22T12:46:09.578Z,41.93
2023-04-22T12:48:39.505Z,39.44
2023-04-22T12:51:06.943Z,40.10
2023-04-22T12:53:34.067Z,40.43
2023-04-22T12:56:00.870Z,40.50
2023-04-22T12:58:27.677Z,40.00
2023-04-22T13:00:54.357Z,40.62
2023-04-22T13:03:21.039Z,40.27
2023-04-22T13:05:47.874Z,41.26
2023-04-22T13:08:14.745Z,40.38
2023-04-22T13:10:41.314Z,41.59
2023-04-22T13:15:38.973Z,40.98
2023-04-22T13:18:06.182Z,41.65
2023-04-22T13:20:32.953Z,42.20
2023-04-22T13:22:59.473Z,40.21
2023-04-22T13:25:26.058Z,40.22
2023-04-22T13:27:52.659Z,39.32
2023-04-22T13:30:20.092Z,40.91
2023-04-22T13:32:46.775Z,41.74
2023-04-22T13:35:13.460Z,41.45
2023-04-22T13:37:40.048Z,39.83
2023-04-22T13:40:08.356Z,38.44
2023-04-22T13:42:35.039Z,39.46
2023-04-22T13:45:01.595Z,38.84
2023-04-22T13:47:28.219Z,41.49
2023-04-22T13:49:54.745Z,39.90
2023-04-22T13:52:21.844Z,41.97
2023-04-22T13:54:48.414Z,39.00
2023-04-22T13:57:15.090Z,41.00
2023-04-22T13:59:42.264Z,41.23
2023-04-22T14:02:09.426Z,39.61
2023-04-22T14:04:36.238Z,41.20
2023-04-22T14:07:04.090Z,41.13
2023-04-22T14:09:31.136Z,39.73
2023-04-22T14:11:58.463Z,41.48
2023-04-22T14:14:24.936Z,40.91
2023-04-22T14:16:51.994Z,41.59
2023-04-22T14:19:18.749Z,44.29
2023-04-22T14:21:45.721Z,40.85
2023-04-22T14:24:12.307Z,44.87
2023-04-22T14:26:38.902Z,40.68
2023-04-22T14:29:05.607Z,41.85
2023-04-22T14:31:32.349Z,42.42
2023-04-22T14:33:58.952Z,40.56
2023-04-22T14:36:25.771Z,40.52
2023-04-22T14:38:52.357Z,41.53
2023-04-22T14:41:19.018Z,40.86
2023-04-22T14:43:46.954Z,41.40
2023-04-22T14:46:13.515Z,42.25
2023-04-22T14:48:40.266Z,44.57
2023-04-22T14:51:06.954Z,44.37
2023-04-22T14:53:34.153Z,46.76
2023-04-22T14:56:01.181Z,47.71
2023-04-22T14:58:31.300Z,49.42
2023-04-22T15:00:59.968Z,50.18
2023-04-22T15:03:26.854Z,52.85
2023-04-22T15:05:54.557Z,51.41
2023-04-22T15:08:21.640Z,50.48
2023-04-22T15:10:48.242Z,49.96
2023-04-22T15:13:15.143Z,48.10
2023-04-22T15:15:41.843Z,49.55
2023-04-22T15:18:09.044Z,47.96
2023-04-22T15:20:35.907Z,48.43
2023-04-22T15:23:03.011Z,49.33
2023-04-22T15:25:29.755Z,50.23
2023-04-22T15:27:57.056Z,47.66
2023-04-22T15:30:24.292Z,48.45
2023-04-22T15:32:50.906Z,47.96
2023-04-22T15:35:17.927Z,49.23
2023-04-22T15:37:45.780Z,47.55
2023-04-22T15:40:12.411Z,48.34
2023-04-22T15:42:39.040Z,49.00
2023-04-22T15:45:06.625Z,48.06
2023-04-22T15:47:33.965Z,49.92
2023-04-22T15:50:06.622Z,49.03
2023-04-22T15:52:33.738Z,46.92
2023-04-22T15:55:01.877Z,48.82
2023-04-22T15:57:28.745Z,47.06
2023-04-22T16:00:06.671Z,49.37
2023-04-22T16:02:36.903Z,48.11
2023-04-22T16:05:04.214Z,48.43
2023-04-22T16:07:31.846Z,47.26
2023-04-22T16:09:58.467Z,47.91
2023-04-22T16:12:24.967Z,47.22
2023-04-22T16:14:51.517Z,46.23
2023-04-22T16:17:18.268Z,47.06
2023-04-22T16:19:44.945Z,46.77
2023-04-22T16:22:11.878Z,47.26
2023-04-22T16:24:38.418Z,45.94
2023-04-22T16:27:05.022Z,46.10
2023-04-22T16:29:31.565Z,46.99
2023-04-22T16:31:58.172Z,46.33
2023-04-22T16:34:24.695Z,46.61
2023-04-22T16:36:51.353Z,45.32
2023-04-22T16:39:19.134Z,47.88
2023-04-22T16:41:45.972Z,46.71
2023-04-22T16:44:12.627Z,47.56
2023-04-22T16:46:39.307Z,47.35
2023-04-22T16:49:08.441Z,46.88
2023-04-22T16:51:36.982Z,46.55
2023-04-22T16:54:04.026Z,46.08
2023-04-22T16:56:30.724Z,47.14
2023-04-22T16:58:57.359Z,47.67
2023-04-22T17:01:24.186Z,47.79
2023-04-22T17:03:51.044Z,48.51
2023-04-22T17:06:18.027Z,49.26
2023-04-22T17:08:44.563Z,50.14
2023-04-22T17:11:12.008Z,50.68
2023-04-22T17:13:38.617Z,51.41
2023-04-22T17:16:05.678Z,52.13
2023-04-22T17:18:32.370Z,52.49
2023-04-22T17:20:58.933Z,53.27
2023-04-22T17:23:26.992Z,53.48
2023-04-22T17:25:53.600Z,54.29
2023-04-22T17:28:20.246Z,55.41
2023-04-22T17:30:46.798Z,56.13
2023-04-22T17:33:13.401Z,56.67
2023-04-22T17:35:40.298Z,57.65
2023-04-22T17:38:07.153Z,57.65
2023-04-22T17:40:33.762Z,57.47
2023-04-22T17:43:00.384Z,57.04
2023-04-22T17:45:27.062Z,57.83
2023-04-22T17:47:53.661Z,58.21
2023-04-22T17:50:20.909Z,58.88
2023-04-22T17:52:47.500Z,59.00
2023-04-22T17:55:14.072Z,59.14
2023-04-22T17:57:41.020Z,59.73
2023-04-22T18:00:08.439Z,60.13
2023-04-22T18:02:35.042Z,60.52
2023-04-22T18:05:02.062Z,61.61
2023-04-22T18:07:28.616Z,62.22
2023-04-22T18:09:55.332Z,61.53
2023-04-22T18:12:24.224Z,61.58
2023-04-22T18:14:50.805Z,61.54
2023-04-22T18:17:20.163Z,62.14
2023-04-22T18:19:50.897Z,62.25
2023-04-22T18:22:18.669Z,62.53
2023-04-22T18:24:45.542Z,62.61
2023-04-22T18:27:12.155Z,62.45
2023-04-22T18:29:39.103Z,67.38
2023-04-22T18:32:06.081Z,65.96
2023-04-22T18:34:32.745Z,67.06
2023-04-22T18:36:59.315Z,68.74
2023-04-22T18:39:25.974Z,68.75
2023-04-22T18:41:52.639Z,69.21
2023-04-22T18:44:19.583Z,70.23
2023-04-22T18:46:46.437Z,71.52
2023-04-22T18:49:13.005Z,74.90
2023-04-22T18:51:42.071Z,74.92
2023-04-22T18:54:08.991Z,74.70
2023-04-22T18:56:35.662Z,76.37
2023-04-22T18:59:02.301Z,75.53
2023-04-22T19:01:28.974Z,74.82
2023-04-22T19:03:56.041Z,73.19
2023-04-22T19:06:22.674Z,73.65
2023-04-22T19:08:51.830Z,73.87
2023-04-22T19:11:18.717Z,74.71
2023-04-22T19:13:46.354Z,76.98
2023-04-22T19:16:12.962Z,75.87
2023-04-22T19:18:40.096Z,74.90
2023-04-22T19:21:07.145Z,73.76
2023-04-22T19:23:34.457Z,73.02
2023-04-22T19:26:02.011Z,75.37
2023-04-22T19:28:28.982Z,75.52
2023-04-22T19:30:55.607Z,76.47
2023-04-22T19:33:22.280Z,81.33
2023-04-22T19:35:48.971Z,82.83
2023-04-22T19:38:19.069Z,78.63
2023-04-22T19:40:45.802Z,76.08
2023-04-22T19:43:12.380Z,76.61
2023-04-22T19:45:38.928Z,76.25
2023-04-22T19:48:06.150Z,76.20
2023-04-22T19:50:34.460Z,76.65
2023-04-22T19:53:05.377Z,81.97
2023-04-22T19:55:36.773Z,82.68
2023-04-22T19:58:03.820Z,80.54
2023-04-22T20:00:34.936Z,81.77
2023-04-22T20:03:02.249Z,81.32
2023-04-22T20:05:29.026Z,83.70
2023-04-22T20:08:00.210Z,82.67
2023-04-22T20:10:27.883Z,82.58
2023-04-22T20:12:54.726Z,82.29
2023-04-22T20:15:21.635Z,86.19
2023-04-22T20:17:48.818Z,86.17
2023-04-22T20:20:17.548Z,85.91
2023-04-22T20:22:46.845Z,85.01
2023-04-22T20:25:15.728Z,84.78
2023-04-22T20:27:42.936Z,85.42
2023-04-22T20:30:10.951Z,88.28
2023-04-22T20:32:38.400Z,90.39
2023-04-22T20:35:06.766Z,88.58
2023-04-22T20:37:36.095Z,86.08
2023-04-22T20:40:05.495Z,85.81
2023-04-22T20:42:33.016Z,85.77
2023-04-22T20:44:59.629Z,85.24
2023-04-22T20:47:26.204Z,90.71
2023-04-22T20:49:52.801Z,89.97
2023-04-22T20:52:19.366Z,88.83
2023-04-22T20:54:46.116Z,86.72
2023-04-22T20:57:13.239Z,87.16
2023-04-22T20:59:39.779Z,86.37
2023-04-22T21:02:07.827Z,85.91
2023-04-22T21:04:34.774Z,85.96
2023-04-22T21:07:06.863Z,85.55
2023-04-22T21:09:33.734Z,85.71
2023-04-22T21:12:01.019Z,85.76
2023-04-22T21:14:27.891Z,86.00
2023-04-22T21:17:04.253Z,86.67
2023-04-22T21:19:34.490Z,86.26
2023-04-22T21:22:05.839Z,86.55
2023-04-22T21:24:34.849Z,87.04
2023-04-22T21:27:01.949Z,86.79
2023-04-22T21:29:29.042Z,87.58
2023-04-22T21:32:07.975Z,87.21
2023-04-22T21:34:35.652Z,87.77
2023-04-22T21:37:02.519Z,87.99
2023-04-22T21:39:29.940Z,87.30
2023-04-22T21:41:56.395Z,87.21
2023-04-22T21:44:23.032Z,87.32
2023-04-22T21:46:49.612Z,87.28
2023-04-22T21:49:16.345Z,88.14
2023-04-22T21:51:43.120Z,88.76
2023-04-22T21:54:09.733Z,91.30
2023-04-22T21:56:36.443Z,93.94
2023-04-22T21:59:02.958Z,94.09
2023-04-22T22:01:29.632Z,94.82
2023-04-22T22:03:56.422Z,93.56
2023-04-22T22:06:23.153Z,93.51
2023-04-22T22:08:50.412Z,93.14
2023-04-22T22:11:27.472Z,92.68
2023-04-22T22:13:56.799Z,92.80
2023-04-22T22:16:23.416Z,94.39
2023-04-22T22:18:50.642Z,94.13
2023-04-22T22:21:17.877Z,95.29
2023-04-22T22:23:44.401Z,96.09
2023-04-22T22:26:11.289Z,96.09
2023-04-22T22:28:38.343Z,96.84
2023-04-22T22:31:05.057Z,97.07
2023-04-22T22:33:31.642Z,96.54
2023-04-22T22:35:58.300Z,96.60
2023-04-22T22:38:24.832Z,96.87
2023-04-22T22:40:51.462Z,97.47
2023-04-22T22:43:18.109Z,97.20
2023-04-22T22:45:45.623Z,97.13
2023-04-22T22:48:12.367Z,97.13
2023-04-22T22:50:39.898Z,98.37
2023-04-22T22:53:06.499Z,98.98
2023-04-22T22:55:34.168Z,99.31
2023-04-22T22:58:00.963Z,98.04
2023-04-22T23:00:27.739Z,98.48
2023-04-22T23:02:54.779Z,98.75
2023-04-22T23:05:21.919Z,98.64
2023-04-22T23:07:48.489Z,96.94
2023-04-22T23:10:15.771Z,96.53
2023-04-22T23:12:42.504Z,96.97
2023-04-22T23:15:09.793Z,96.33
2023-04-22T23:17:36.946Z,96.11
2023-04-22T23:20:04.476Z,97.48
2023-04-22T23:22:32.198Z,98.60
2023-04-22T23:24:58.818Z,99.71
2023-04-22T23:27:25.453Z,99.38
2023-04-22T23:29:52.046Z,99.19
2023-04-22T23:32:19.460Z,98.92
2023-04-22T23:34:48.924Z,97.44
2023-04-22T23:37:15.556Z,96.83
2023-04-22T23:39:42.594Z,96.37
2023-04-22T23:42:09.171Z,96.71
2023-04-22T23:44:35.875Z,98.67
2023-04-22T23:47:02.532Z,99.00
2023-04-22T23:49:29.720Z,98.43
2023-04-22T23:51:56.159Z,98.99
2023-04-22T23:54:22.739Z,99.04
2023-04-22T23:56:49.249Z,99.96
2023-04-22T23:59:15.849Z,100.00
